Time;durP1;ratioP1;P1;durP2;ratioP2;P2;SDS_P1;SDS_P2;PMS_P1;PMS_P2;Temp;Humidity;BMP_temperature;BMP_pressure;BME280_temperature;BME280_humidity;BME280_pressure;Samples;Min_cycle;Max_cycle;Signal;HPM_P1;HPM_P2
2022/07/16 10:36:07;;;;;;;;;;;;;;;34.16;34.04;99619.88;4972451;28;1340;-67
2022/07/16 10:38:36;;;;;;;;;;;;;;;34.33;34.46;99622.97;4972783;28;1189;-68
2022/07/16 10:41:07;;;;;;;;;;;;;;;34.62;33.83;99608.38;4972811;28;820;-67
2022/07/16 10:43:33;;;;;;;;;;;;;;;34.90;33.26;99601.63;4972894;28;874;-67
2022/07/16 10:46:07;;;;;;;;;;;;;;;34.78;33.18;99597.66;4972857;28;1914;-67
2022/07/16 10:48:37;;;;;;;;;;;;;;;34.64;32.84;99600.00;4973087;28;905;-68
2022/07/16 10:51:15;;;;;;;;;;;;;;;34.64;33.62;99599.22;4972778;28;862;-69
2022/07/16 10:53:58;;;;;;;;;;;;;;;34.90;32.38;99598.75;4972815;28;893;-67
2022/07/16 10:56:43;;;;;;;;;;;;;;;35.03;32.45;99597.75;4972816;28;850;-70
2022/07/16 10:59:11;;;;;;;;;;;;;;;35.11;32.63;99598.50;4972662;28;827;-67
2022/07/16 11:01:39;;;;;;;;;;;;;;;35.45;32.17;99602.22;4972573;28;874;-68
2022/07/16 11:04:06;;;;;;;;;;;;;;;35.51;31.29;99594.13;4972564;28;1917;-68
2022/07/16 11:06:33;;;;;;;;;;;;;;;35.84;31.02;99603.50;4972589;28;819;-69
2022/07/16 11:09:00;;;;;;;;;;;;;;;36.09;31.04;99606.41;4972527;28;1246;-68
2022/07/16 11:11:34;;;;;;;;;;;;;;;36.27;31.42;99597.84;4972505;28;827;-68
2022/07/16 11:14:09;;;;;;;;;;;;;;;36.21;30.54;99598.09;4972513;28;890;-69
2022/07/16 11:16:47;;;;;;;;;;;;;;;36.08;30.26;99595.47;4972492;28;941;-69
2022/07/16 11:19:15;;;;;;;;;;;;;;;36.27;30.72;99600.72;4972698;28;815;-68
2022/07/16 11:22:01;;;;;;;;;;;;;;;36.49;30.73;99598.97;4972650;28;932;-68
2022/07/16 11:27:31;;;;;;;;;;;;;;;36.70;29.10;99599.38;4972497;28;610;-71
2022/07/16 11:30:07;;;;;;;;;;;;;;;36.72;28.75;99596.66;4972395;28;846;-68
2022/07/16 11:32:41;;;;;;;;;;;;;;;37.01;28.52;99599.00;4972280;28;1048;-68
2022/07/16 11:35:09;;;;;;;;;;;;;;;37.32;28.74;99593.66;4972075;28;2357;-68
2022/07/16 11:37:53;;;;;;;;;;;;;;;37.14;28.18;99595.03;4973505;28;1017;-68
2022/07/16 11:40:20;;;;;;;;;;;;;;;36.91;27.49;99596.03;4975911;28;842;-68
2022/07/16 11:45:52;;;;;;;;;;;;;;;37.17;26.85;99600.38;4976069;28;732;-69
2022/07/16 11:48:19;;;;;;;;;;;;;;;37.25;27.36;99603.13;4975851;28;795;-68
2022/07/16 11:50:46;;;;;;;;;;;;;;;37.51;27.22;99598.78;4975649;28;855;-68
2022/07/16 11:53:47;;;;;;;;;;;;;;;37.91;26.83;99591.06;4975966;28;858;-69
2022/07/16 11:56:14;;;;;;;;;;;;;;;37.68;25.94;99600.84;4975600;28;2006;-75
2022/07/16 11:58:42;;;;;;;;;;;;;;;37.42;26.38;99590.81;4975599;28;845;-68
2022/07/16 12:01:09;;;;;;;;;;;;;;;37.52;26.28;99593.75;4975422;28;854;-68
2022/07/16 12:06:44;;;;;;;;;;;;;;;38.23;25.78;99587.09;4975562;28;651;-69
2022/07/16 12:09:12;;;;;;;;;;;;;;;38.46;26.00;99589.59;4975500;28;835;-68
2022/07/16 12:11:58;;;;;;;;;;;;;;;38.93;25.61;99593.13;4975362;28;866;-70
2022/07/16 12:14:41;;;;;;;;;;;;;;;39.76;25.64;99591.19;4975239;28;1954;-68
2022/07/16 12:17:29;;;;;;;;;;;;;;;39.89;24.32;99590.69;4975526;28;846;-69
2022/07/16 12:20:10;;;;;;;;;;;;;;;39.48;24.23;99587.78;4975099;28;1202;-69
2022/07/16 12:23:03;;;;;;;;;;;;;;;39.28;24.19;99587.03;4975167;28;862;-70
2022/07/16 12:25:31;;;;;;;;;;;;;;;38.83;24.50;99588.72;4972712;28;1299;-70
2022/07/16 12:28:05;;;;;;;;;;;;;;;38.92;24.98;99587.94;4975113;28;861;-71
2022/07/16 12:30:42;;;;;;;;;;;;;;;39.06;24.91;99591.94;4974931;28;858;-73
2022/07/16 12:33:23;;;;;;;;;;;;;;;38.59;24.42;99605.72;4973859;28;1231;-71
2022/07/16 12:35:58;;;;;;;;;;;;;;;38.82;24.42;99602.41;4974566;28;1910;-70
2022/07/16 12:38:48;;;;;;;;;;;;;;;39.52;24.22;99590.19;4974858;28;879;-69
2022/07/16 12:41:26;;;;;;;;;;;;;;;39.90;23.84;99589.31;4957462;28;1219;-70
2022/07/16 12:44:00;;;;;;;;;;;;;;;39.74;23.88;99588.91;4974750;28;804;-70
2022/07/16 12:46:46;;;;;;;;;;;;;;;39.49;24.00;99585.63;4974761;28;792;-68
2022/07/16 12:49:14;;;;;;;;;;;;;;;39.09;24.49;99581.28;4974409;28;835;-70
2022/07/16 12:51:42;;;;;;;;;;;;;;;38.94;24.68;99593.88;4974725;28;796;-69
2022/07/16 12:54:22;;;;;;;;;;;;;;;38.94;24.82;99593.88;4974580;28;1946;-75
2022/07/16 12:59:34;;;;;;;;;;;;;;;38.72;25.08;99590.84;4974454;28;598;-72
2022/07/16 13:02:05;;;;;;;;;;;;;;;38.93;24.82;99596.00;4974407;28;855;-71
2022/07/16 13:04:32;;;;;;;;;;;;;;;39.01;24.69;99595.91;4974462;28;831;-70
2022/07/16 13:06:59;;;;;;;;;;;;;;;38.77;25.02;99586.91;4956950;28;1415;-71
2022/07/16 13:09:30;;;;;;;;;;;;;;;38.58;25.54;99584.03;4974384;28;803;-72
2022/07/16 13:11:56;;;;;;;;;;;;;;;38.29;25.55;99584.69;4957110;28;1209;-70
2022/07/16 13:14:30;;;;;;;;;;;;;;;37.79;25.49;99582.25;4974350;28;1943;-69
2022/07/16 13:16:56;;;;;;;;;;;;;;;36.02;28.00;99572.72;4974197;28;846;-71
2022/07/16 13:19:23;;;;;;;;;;;;;;;35.94;28.65;99574.88;4974186;28;831;-69
2022/07/16 13:34:01;;;;;;;;;;;;;;;38.43;25.30;99584.25;4973727;28;1973;-68
2022/07/16 13:36:28;;;;;;;;;;;;;;;38.15;25.23;99586.47;4973907;28;831;-72
2022/07/16 13:38:55;;;;;;;;;;;;;;;38.56;25.50;99590.38;4973741;28;875;-71
2022/07/16 13:41:21;;;;;;;;;;;;;;;38.53;25.25;99587.94;4955448;28;1274;-69
2022/07/16 13:43:48;;;;;;;;;;;;;;;38.55;24.75;99593.88;4974135;28;866;-70
2022/07/16 13:46:17;;;;;;;;;;;;;;;38.35;25.23;99599.59;4973899;28;815;-71
2022/07/16 13:48:45;;;;;;;;;;;;;;;38.22;25.44;99602.91;4973522;28;875;-71
2022/07/16 13:51:31;;;;;;;;;;;;;;;37.80;25.70;99592.41;4973687;28;897;-71
2022/07/16 13:53:58;;;;;;;;;;;;;;;37.64;26.90;99589.00;4973697;28;883;-71
2022/07/16 13:56:24;;;;;;;;;;;;;;;37.40;26.66;99593.53;4973653;28;819;-71
2022/07/16 13:58:51;;;;;;;;;;;;;;;37.02;26.99;99594.75;4973433;28;812;-70
2022/07/16 14:01:18;;;;;;;;;;;;;;;36.77;27.17;99583.34;4973002;28;885;-69
2022/07/16 14:03:45;;;;;;;;;;;;;;;36.46;27.68;99591.53;4973589;28;811;-70
2022/07/16 14:06:11;;;;;;;;;;;;;;;36.15;27.06;99592.56;4973536;28;815;-72
2022/07/16 14:08:52;;;;;;;;;;;;;;;35.90;27.67;99598.28;4973462;28;871;-71
2022/07/16 14:11:18;;;;;;;;;;;;;;;35.44;28.96;99609.28;4973312;28;819;-70
2022/07/16 14:13:45;;;;;;;;;;;;;;;35.37;29.17;99600.13;4973170;28;854;-70
2022/07/16 14:16:15;;;;;;;;;;;;;;;35.31;29.58;99601.69;4973151;28;1954;-71
2022/07/16 14:18:42;;;;;;;;;;;;;;;35.49;29.37;99593.94;4973117;28;830;-68
2022/07/16 14:21:09;;;;;;;;;;;;;;;35.47;29.48;99600.28;4955732;28;1224;-70
2022/07/16 14:23:36;;;;;;;;;;;;;;;35.17;29.24;99595.44;4973017;28;818;-70
2022/07/16 14:26:07;;;;;;;;;;;;;;;34.64;30.43;99602.09;4972981;28;879;-70
2022/07/16 14:28:48;;;;;;;;;;;;;;;34.13;31.02;99607.47;4973279;28;776;-69
2022/07/16 14:31:53;;;;;;;;;;;;;;;33.50;31.68;99609.97;4973116;28;1138;-71
2022/07/16 14:34:20;;;;;;;;;;;;;;;32.10;33.87;99601.13;4970468;28;1977;-69
2022/07/16 14:36:46;;;;;;;;;;;;;;;31.19;35.04;99613.06;4972895;28;1168;-68
2022/07/16 14:39:13;;;;;;;;;;;;;;;30.54;35.91;99610.44;4972848;28;929;-70
2022/07/16 14:41:40;;;;;;;;;;;;;;;30.48;36.45;99604.09;4972885;28;823;-71
2022/07/16 14:44:24;;;;;;;;;;;;;;;30.99;36.08;99597.41;4972844;28;906;-72
2022/07/16 14:46:53;;;;;;;;;;;;;;;31.52;34.91;99603.78;4972755;28;804;-72
2022/07/16 14:49:20;;;;;;;;;;;;;;;31.94;34.86;99603.06;4972750;28;815;-68
2022/07/16 14:51:47;;;;;;;;;;;;;;;32.01;34.74;99593.81;4972690;28;843;-72
2022/07/16 14:54:13;;;;;;;;;;;;;;;31.73;34.47;99597.34;4972567;28;1898;-70
2022/07/16 14:56:46;;;;;;;;;;;;;;;31.79;34.50;99600.81;4972659;28;838;-71
2022/07/16 14:59:12;;;;;;;;;;;;;;;31.58;33.81;99600.03;4972585;28;843;-70
2022/07/16 15:01:39;;;;;;;;;;;;;;;31.05;34.68;99606.63;4972623;28;866;-71
2022/07/16 15:04:06;;;;;;;;;;;;;;;30.93;35.07;99603.22;4972639;28;906;-71
2022/07/16 15:06:41;;;;;;;;;;;;;;;31.06;34.92;99602.44;4972638;28;819;-71
2022/07/16 15:09:08;;;;;;;;;;;;;;;31.20;34.43;99601.09;4972612;28;929;-70
2022/07/16 15:11:38;;;;;;;;;;;;;;;31.29;33.51;99594.16;4973760;28;787;-69
2022/07/16 15:14:04;;;;;;;;;;;;;;;31.49;33.33;99595.56;4959241;28;1941;-72
2022/07/16 15:16:31;;;;;;;;;;;;;;;31.65;33.67;99590.78;4976836;28;803;-71
2022/07/16 15:19:02;;;;;;;;;;;;;;;31.73;33.44;99589.53;4977008;28;792;-72
2022/07/16 15:21:30;;;;;;;;;;;;;;;31.84;32.51;99577.06;4976328;28;843;-70
2022/07/16 15:24:15;;;;;;;;;;;;;;;32.05;33.01;99587.75;4958885;28;1216;-70
2022/07/16 15:26:42;;;;;;;;;;;;;;;32.45;32.50;99593.97;4976213;28;870;-70
2022/07/16 15:29:13;;;;;;;;;;;;;;;32.43;32.60;99588.03;4976188;28;890;-71
2022/07/16 15:31:39;;;;;;;;;;;;;;;32.52;31.89;99598.97;4976262;28;1018;-72
2022/07/16 15:34:08;;;;;;;;;;;;;;;32.54;32.25;99595.59;4975852;28;1902;-71
2022/07/16 15:36:36;;;;;;;;;;;;;;;32.51;32.88;99611.75;4975993;28;823;-73
2022/07/16 15:39:04;;;;;;;;;;;;;;;32.19;32.62;99591.31;4958864;28;1253;-70
2022/07/16 15:44:44;;;;;;;;;;;;;;;31.08;34.61;99586.31;4976108;28;617;-69
2022/07/16 15:47:13;;;;;;;;;;;;;;;30.88;34.88;99584.91;4975723;28;831;-70
2022/07/16 15:49:43;;;;;;;;;;;;;;;30.58;35.61;99584.44;4975767;28;804;-70
2022/07/16 15:52:11;;;;;;;;;;;;;;;30.41;36.46;99582.69;4974495;28;1314;-70
2022/07/16 15:54:41;;;;;;;;;;;;;;;30.27;36.93;99586.81;4975578;28;1902;-71
2022/07/16 15:57:09;;;;;;;;;;;;;;;29.76;37.27;99581.19;4975789;28;788;-71
2022/07/16 16:00:09;;;;;;;;;;;;;;;29.45;38.07;99581.38;4975763;28;898;-70
2022/07/16 16:02:43;;;;;;;;;;;;;;;29.38;38.28;99589.75;4973205;28;1146;-70
2022/07/16 16:05:11;;;;;;;;;;;;;;;29.76;37.89;99584.03;4975446;28;855;-70
2022/07/16 16:07:38;;;;;;;;;;;;;;;30.50;37.15;99581.50;4976187;28;764;-71
2022/07/16 16:10:07;;;;;;;;;;;;;;;30.93;36.42;99589.72;4975692;28;867;-70
2022/07/16 16:12:35;;;;;;;;;;;;;;;30.95;36.65;99589.19;4975613;28;787;-70
2022/07/16 16:15:02;;;;;;;;;;;;;;;30.56;37.05;99587.84;4975255;28;1961;-71
2022/07/16 16:17:38;;;;;;;;;;;;;;;30.07;37.98;99593.91;4975261;28;901;-70
2022/07/16 16:20:07;;;;;;;;;;;;;;;29.71;38.57;99600.69;4975279;28;885;-71
2022/07/16 16:22:45;;;;;;;;;;;;;;;29.48;39.36;99599.44;4957664;28;1439;-70
2022/07/16 16:25:12;;;;;;;;;;;;;;;29.27;40.35;99599.97;4957762;28;1303;-71
2022/07/16 16:27:38;;;;;;;;;;;;;;;29.04;40.98;99608.03;4974995;28;803;-71
2022/07/16 16:30:06;;;;;;;;;;;;;;;28.85;41.07;99610.84;4957622;28;1348;-72
2022/07/16 16:32:35;;;;;;;;;;;;;;;28.65;41.47;99614.16;4975266;28;930;-70
2022/07/16 16:38:23;;;;;;;;;;;;;;;28.13;42.16;99610.25;4974967;28;1033;-70
2022/07/16 16:40:56;;;;;;;;;;;;;;;27.94;41.93;99610.16;4974777;28;897;-69
2022/07/16 16:43:45;;;;;;;;;;;;;;;27.83;42.66;99608.13;4974998;28;808;-69
2022/07/16 16:46:51;;;;;;;;;;;;;;;27.67;42.65;99612.66;4974765;28;871;-70
2022/07/16 16:52:20;;;;;;;;;;;;;;;27.31;43.08;99613.88;4974642;28;614;-70
2022/07/16 16:54:51;;;;;;;;;;;;;;;27.18;43.73;99617.28;4974667;28;1894;-71
2022/07/16 16:57:18;;;;;;;;;;;;;;;27.07;43.76;99615.25;4957066;28;1210;-69
2022/07/16 16:59:45;;;;;;;;;;;;;;;26.92;44.55;99626.91;4957107;28;1253;-69
2022/07/16 17:02:11;;;;;;;;;;;;;;;26.78;44.90;99636.50;4974418;28;803;-69
2022/07/16 17:04:39;;;;;;;;;;;;;;;26.63;45.32;99629.06;4957156;28;1321;-70
2022/07/16 17:07:06;;;;;;;;;;;;;;;26.54;45.02;99626.47;4974346;28;820;-69
2022/07/16 17:09:33;;;;;;;;;;;;;;;26.44;45.60;99636.56;4974239;28;823;-69
2022/07/16 17:12:00;;;;;;;;;;;;;;;26.30;46.00;99640.41;4974334;28;858;-69
2022/07/16 17:14:27;;;;;;;;;;;;;;;26.15;46.67;99635.00;4956817;28;1947;-69
2022/07/16 17:16:54;;;;;;;;;;;;;;;25.99;47.01;99628.03;4974128;28;899;-69
2022/07/16 17:19:21;;;;;;;;;;;;;;;25.84;47.35;99634.72;4956747;28;1308;-69
2022/07/16 17:21:49;;;;;;;;;;;;;;;25.67;48.00;99634.69;4974033;28;1001;-69
2022/07/16 17:24:16;;;;;;;;;;;;;;;25.47;48.41;99632.81;4956674;28;1300;-69
2022/07/16 17:26:42;;;;;;;;;;;;;;;25.21;49.31;99632.25;4973919;28;815;-69
2022/07/16 17:29:09;;;;;;;;;;;;;;;24.95;50.17;99635.19;4972787;28;895;-69
2022/07/16 17:31:36;;;;;;;;;;;;;;;24.71;50.93;99644.03;4973900;28;941;-68
2022/07/16 17:34:04;;;;;;;;;;;;;;;24.51;51.20;99636.47;4974146;28;1304;-69
2022/07/16 17:36:31;;;;;;;;;;;;;;;24.34;51.59;99639.91;4973786;28;1910;-69
2022/07/16 17:38:57;;;;;;;;;;;;;;;24.20;51.99;99638.03;4974001;28;819;-69
2022/07/16 17:41:24;;;;;;;;;;;;;;;24.05;52.96;99640.97;4972402;28;1237;-68
2022/07/16 17:43:51;;;;;;;;;;;;;;;23.88;53.18;99640.81;4973590;28;799;-69
2022/07/16 17:46:20;;;;;;;;;;;;;;;23.76;54.00;99654.03;4973608;28;870;-69
2022/07/16 17:51:34;;;;;;;;;;;;;;;23.44;54.80;99662.38;4973812;28;666;-68
2022/07/16 17:54:01;;;;;;;;;;;;;;;23.32;55.46;99657.91;4973855;28;843;-69
2022/07/16 17:56:28;;;;;;;;;;;;;;;23.22;55.36;99662.13;4973333;28;1957;-68
2022/07/16 17:58:55;;;;;;;;;;;;;;;23.11;55.82;99661.97;4974043;28;792;-68
2022/07/16 18:01:23;;;;;;;;;;;;;;;22.99;56.44;99678.72;4973403;28;803;-69
2022/07/16 18:03:50;;;;;;;;;;;;;;;22.90;56.80;99678.84;4973541;28;1285;-68
2022/07/16 18:09:21;;;;;;;;;;;;;;;22.94;56.54;99687.88;4973167;28;1223;-69
2022/07/16 18:11:51;;;;;;;;;;;;;;;22.81;57.33;99687.44;4973249;28;799;-69
2022/07/16 18:14:18;;;;;;;;;;;;;;;22.66;57.88;99690.28;4973109;28;1890;-68
2022/07/16 18:16:49;;;;;;;;;;;;;;;22.54;58.16;99703.41;4971900;28;1285;-69
2022/07/16 18:19:16;;;;;;;;;;;;;;;22.52;57.94;99705.16;4973082;28;867;-68
2022/07/16 18:21:44;;;;;;;;;;;;;;;22.49;57.83;99704.09;4973130;28;886;-68
2022/07/16 18:24:13;;;;;;;;;;;;;;;22.44;57.53;99704.78;4972951;28;851;-68
2022/07/16 18:26:45;;;;;;;;;;;;;;;22.34;57.69;99697.69;4973031;28;848;-69
2022/07/16 18:29:11;;;;;;;;;;;;;;;22.22;58.01;99705.16;4973052;28;815;-69
2022/07/16 18:31:49;;;;;;;;;;;;;;;22.19;57.68;99704.09;4973013;28;1061;-69
2022/07/16 18:34:15;;;;;;;;;;;;;;;22.15;57.32;99714.00;4972937;28;1911;-70
2022/07/16 18:36:50;;;;;;;;;;;;;;;22.09;57.25;99718.75;4973054;28;898;-69
2022/07/16 18:39:26;;;;;;;;;;;;;;;21.99;57.47;99718.81;4972901;28;894;-68
2022/07/16 18:41:56;;;;;;;;;;;;;;;21.89;57.08;99708.94;4955476;28;1430;-69
2022/07/16 18:44:40;;;;;;;;;;;;;;;21.78;57.25;99723.53;4972762;28;804;-69
2022/07/16 18:47:15;;;;;;;;;;;;;;;21.66;57.01;99716.16;4972532;28;858;-69
2022/07/16 18:50:15;;;;;;;;;;;;;;;21.58;57.31;99714.97;4973003;28;787;-69
2022/07/16 18:52:47;;;;;;;;;;;;;;;21.60;56.25;99720.91;4972640;28;1167;-69
2022/07/16 18:55:14;;;;;;;;;;;;;;;21.67;55.59;99720.50;4972669;28;1890;-69
2022/07/16 18:57:41;;;;;;;;;;;;;;;21.69;55.17;99722.84;4955320;28;1585;-69
2022/07/16 19:00:09;;;;;;;;;;;;;;;21.68;54.56;99722.09;4955348;28;1217;-69
2022/07/16 19:02:37;;;;;;;;;;;;;;;21.73;53.92;99729.06;4972848;28;1218;-69
2022/07/16 19:05:06;;;;;;;;;;;;;;;21.77;54.02;99733.25;4973338;28;784;-68
2022/07/16 19:07:32;;;;;;;;;;;;;;;21.75;53.87;99727.31;4955483;28;1442;-68
2022/07/16 19:09:59;;;;;;;;;;;;;;;21.69;54.29;99734.09;4972871;28;902;-69
2022/07/16 19:12:26;;;;;;;;;;;;;;;21.63;54.18;99731.16;4955412;28;1179;-70
2022/07/16 19:14:53;;;;;;;;;;;;;;;21.61;54.05;99737.28;4972778;28;1886;-69
2022/07/16 19:17:20;;;;;;;;;;;;;;;21.60;53.88;99735.72;4972689;28;761;-68
2022/07/16 19:19:47;;;;;;;;;;;;;;;21.77;52.71;99733.25;4971393;28;1210;-69
2022/07/16 19:22:14;;;;;;;;;;;;;;;22.01;51.13;99735.22;4972680;28;831;-69
2022/07/16 19:24:40;;;;;;;;;;;;;;;22.18;50.54;99733.50;4955229;28;1344;-69
2022/07/16 19:27:07;;;;;;;;;;;;;;;22.30;49.99;99737.31;4972868;28;835;-68
2022/07/16 19:29:34;;;;;;;;;;;;;;;22.28;50.21;99737.03;4955147;28;1301;-69
2022/07/16 19:32:02;;;;;;;;;;;;;;;22.25;49.78;99735.16;4955262;28;1320;-70
2022/07/16 19:34:29;;;;;;;;;;;;;;;22.34;49.28;99743.53;4972285;28;1923;-69
2022/07/16 19:36:56;;;;;;;;;;;;;;;22.37;49.29;99748.19;4972652;28;898;-70
2022/07/16 19:39:23;;;;;;;;;;;;;;;22.24;49.97;99756.16;4972562;28;906;-68
2022/07/16 19:41:49;;;;;;;;;;;;;;;22.11;50.48;99753.59;4972808;28;752;-69
2022/07/16 19:44:16;;;;;;;;;;;;;;;22.13;50.34;99750.28;4955083;28;1316;-69
2022/07/16 19:46:44;;;;;;;;;;;;;;;22.09;51.02;99758.91;4972761;28;939;-69
2022/07/16 19:49:11;;;;;;;;;;;;;;;22.08;51.39;99748.13;4955048;28;1205;-71
2022/07/16 19:51:38;;;;;;;;;;;;;;;22.03;51.99;99755.22;4955094;28;1245;-70
2022/07/16 19:54:04;;;;;;;;;;;;;;;21.93;52.25;99759.38;4955543;28;1178;-70
2022/07/16 20:03:03;;;;;;;;;;;;;;;21.27;54.99;99761.06;4972061;28;1068;-69
2022/07/16 20:05:32;;;;;;;;;;;;;;;21.23;55.82;99762.50;4974314;28;1040;-70
2022/07/16 20:07:59;;;;;;;;;;;;;;;21.26;55.84;99762.31;4974127;28;1304;-69
2022/07/16 20:10:27;;;;;;;;;;;;;;;21.38;55.20;99764.13;4975416;28;886;-69
2022/07/16 20:12:57;;;;;;;;;;;;;;;21.39;56.21;99773.34;4957903;28;1356;-68
2022/07/16 20:15:24;;;;;;;;;;;;;;;21.24;56.47;99764.06;4975525;28;1882;-68
2022/07/16 20:17:52;;;;;;;;;;;;;;;21.13;56.83;99776.59;4957866;28;1335;-68
2022/07/16 20:20:19;;;;;;;;;;;;;;;21.04;57.18;99771.03;4975267;28;878;-69
2022/07/16 20:22:46;;;;;;;;;;;;;;;21.04;57.31;99778.66;4975723;28;776;-69
2022/07/16 20:25:13;;;;;;;;;;;;;;;21.04;57.31;99775.84;4958125;28;1335;-69
2022/07/16 20:27:44;;;;;;;;;;;;;;;20.98;58.23;99784.94;4957855;28;1259;-70
2022/07/16 20:30:11;;;;;;;;;;;;;;;20.90;58.43;99794.97;4975096;28;843;-71
2022/07/16 20:32:39;;;;;;;;;;;;;;;20.80;58.33;99788.63;4975383;28;949;-69
2022/07/16 20:35:06;;;;;;;;;;;;;;;20.74;58.63;99790.50;4974669;28;1902;-69
2022/07/16 20:37:55;;;;;;;;;;;;;;;20.67;59.41;99795.66;4974986;28;863;-70
2022/07/16 20:43:26;;;;;;;;;;;;;;;20.43;60.13;99799.13;4974990;28;622;-70
2022/07/16 20:45:52;;;;;;;;;;;;;;;20.43;59.96;99798.34;4957676;28;851;-70
2022/07/16 20:48:21;;;;;;;;;;;;;;;20.39;59.88;99802.09;4975191;28;866;-70
2022/07/16 20:50:54;;;;;;;;;;;;;;;20.38;59.74;99799.78;4957549;28;1205;-69
2022/07/16 20:53:20;;;;;;;;;;;;;;;20.38;59.66;99805.38;4974521;28;799;-70
2022/07/16 20:55:46;;;;;;;;;;;;;;;20.32;60.02;99801.66;4972949;28;1894;-71
2022/07/16 20:58:13;;;;;;;;;;;;;;;20.28;60.13;99804.59;4974593;28;855;-69
2022/07/16 21:00:42;;;;;;;;;;;;;;;20.25;60.29;99799.94;4974426;28;815;-70
2022/07/16 21:03:08;;;;;;;;;;;;;;;20.21;60.77;99802.13;4974829;28;784;-69
2022/07/16 21:05:35;;;;;;;;;;;;;;;20.18;60.86;99809.47;4974339;28;879;-69
2022/07/16 21:14:09;;;;;;;;;;;;;;;20.13;62.07;99798.06;4974248;28;611;-69
2022/07/16 21:16:35;;;;;;;;;;;;;;;20.15;62.38;99787.94;4974083;28;1882;-69
2022/07/16 21:19:01;;;;;;;;;;;;;;;20.18;62.97;99795.44;4974137;28;812;-69
2022/07/16 21:21:28;;;;;;;;;;;;;;;20.22;63.47;99789.66;4974031;28;878;-68
2022/07/16 21:23:54;;;;;;;;;;;;;;;20.27;63.78;99791.84;4974031;28;843;-70
2022/07/16 21:26:21;;;;;;;;;;;;;;;20.32;64.20;99798.84;4974019;28;874;-69
2022/07/16 21:29:08;;;;;;;;;;;;;;;20.31;64.62;99800.06;4973958;28;807;-69
2022/07/16 21:34:37;;;;;;;;;;;;;;;20.34;65.86;99799.16;4973582;28;1906;-69
2022/07/16 21:37:02;;;;;;;;;;;;;;;20.23;66.41;99804.44;4974033;28;894;-69
2022/07/16 21:39:36;;;;;;;;;;;;;;;20.11;67.13;99812.56;4974117;28;792;-69
2022/07/16 21:42:04;;;;;;;;;;;;;;;20.03;67.64;99816.16;4973707;28;824;-69
2022/07/16 21:44:40;;;;;;;;;;;;;;;19.93;68.38;99821.78;4973770;28;895;-69
2022/07/16 21:47:06;;;;;;;;;;;;;;;19.82;69.10;99815.81;4974063;28;878;-68
2022/07/16 21:49:36;;;;;;;;;;;;;;;19.77;69.57;99817.22;4973663;28;864;-69
2022/07/16 21:52:02;;;;;;;;;;;;;;;19.74;70.22;99811.78;4973645;28;827;-70
2022/07/16 21:54:28;;;;;;;;;;;;;;;19.72;70.63;99814.28;4973668;28;1980;-68
2022/07/16 21:56:54;;;;;;;;;;;;;;;19.75;70.96;99814.09;4973611;28;975;-69
2022/07/16 21:59:21;;;;;;;;;;;;;;;19.79;71.05;99820.34;4973365;28;878;-69
2022/07/16 22:01:51;;;;;;;;;;;;;;;19.81;71.32;99822.69;4973531;28;851;-68
2022/07/16 22:04:18;;;;;;;;;;;;;;;19.81;71.47;99819.88;4973723;28;804;-68
2022/07/16 22:06:45;;;;;;;;;;;;;;;19.70;71.71;99813.97;4973545;28;874;-68
2022/07/16 22:09:11;;;;;;;;;;;;;;;19.56;72.19;99827.28;4973422;28;875;-69
2022/07/16 22:11:37;;;;;;;;;;;;;;;19.47;72.56;99818.88;4973595;28;824;-68
2022/07/16 22:14:08;;;;;;;;;;;;;;;19.52;72.78;99815.47;4973657;28;875;-69
2022/07/16 22:22:44;;;;;;;;;;;;;;;20.05;71.73;99814.44;4972666;28;665;-68
2022/07/16 22:25:12;;;;;;;;;;;;;;;20.28;70.39;99806.63;4973302;28;864;-68
2022/07/16 22:27:39;;;;;;;;;;;;;;;20.41;69.78;99810.03;4972993;28;887;-68
2022/07/16 22:30:08;;;;;;;;;;;;;;;20.34;70.03;99813.19;4972968;28;894;-68
2022/07/16 22:32:34;;;;;;;;;;;;;;;20.17;70.76;99813.50;4973221;28;932;-68
2022/07/16 22:35:02;;;;;;;;;;;;;;;20.10;70.87;99813.84;4972485;28;1974;-69
2022/07/16 22:37:29;;;;;;;;;;;;;;;20.16;69.49;99809.16;4972933;28;859;-68
2022/07/16 22:39:59;;;;;;;;;;;;;;;20.34;67.50;99813.19;4972956;28;815;-68
2022/07/16 22:42:26;;;;;;;;;;;;;;;20.37;66.51;99809.44;4973421;28;902;-68
2022/07/16 22:44:52;;;;;;;;;;;;;;;20.22;66.89;99816.94;4973035;28;800;-68
2022/07/16 22:47:19;;;;;;;;;;;;;;;19.99;67.46;99821.91;4973127;28;776;-69
2022/07/16 22:49:45;;;;;;;;;;;;;;;19.74;68.71;99818.16;4955305;28;1341;-69
2022/07/16 22:55:17;;;;;;;;;;;;;;;19.28;70.70;99818.03;4965791;28;1898;-69
2022/07/16 22:57:44;;;;;;;;;;;;;;;19.12;71.45;99810.66;4972699;28;824;-68
2022/07/16 23:00:11;;;;;;;;;;;;;;;19.00;71.68;99816.38;4972635;28;891;-68
2022/07/16 23:02:38;;;;;;;;;;;;;;;18.96;71.52;99817.28;4972625;28;891;-69
2022/07/16 23:05:05;;;;;;;;;;;;;;;19.00;71.18;99808.75;4972650;28;832;-68
2022/07/16 23:07:32;;;;;;;;;;;;;;;19.00;71.26;99808.75;4955230;28;1411;-67
2022/07/16 23:09:59;;;;;;;;;;;;;;;19.05;70.87;99799.72;4972597;28;800;-68
2022/07/16 23:12:25;;;;;;;;;;;;;;;19.05;70.82;99802.53;4972537;28;847;-68
2022/07/16 23:14:52;;;;;;;;;;;;;;;19.19;70.03;99798.41;4972506;28;1882;-69
2022/07/16 23:17:19;;;;;;;;;;;;;;;19.41;69.30;99801.09;4972444;28;807;-68
2022/07/16 23:19:45;;;;;;;;;;;;;;;19.46;69.34;99802.50;4972385;28;863;-68
2022/07/16 23:22:12;;;;;;;;;;;;;;;19.31;69.68;99802.31;4972450;28;874;-68
2022/07/16 23:27:50;;;;;;;;;;;;;;;18.83;71.10;99811.00;4972590;28;657;-67
2022/07/16 23:30:17;;;;;;;;;;;;;;;18.65;72.08;99810.88;4955057;28;1225;-68
2022/07/16 23:32:43;;;;;;;;;;;;;;;18.63;72.31;99811.34;4972790;28;943;-67
2022/07/16 23:35:10;;;;;;;;;;;;;;;18.69;72.29;99812.31;4975918;28;1903;-68
2022/07/16 23:37:37;;;;;;;;;;;;;;;18.75;72.04;99801.28;4976314;28;849;-68
2022/07/16 23:40:04;;;;;;;;;;;;;;;18.84;71.82;99806.19;4958669;28;1161;-68
2022/07/16 23:42:30;;;;;;;;;;;;;;;18.85;71.82;99805.72;4975981;28;803;-68
2022/07/16 23:44:57;;;;;;;;;;;;;;;18.86;71.83;99803.69;4958584;28;1158;-68
2022/07/16 23:47:24;;;;;;;;;;;;;;;18.89;71.75;99806.38;4975861;28;922;-67
2022/07/16 23:49:50;;;;;;;;;;;;;;;18.89;71.86;99800.78;4975749;28;819;-68
2022/07/16 23:52:16;;;;;;;;;;;;;;;18.82;72.07;99798.25;4975742;28;871;-68
2022/07/16 23:54:42;;;;;;;;;;;;;;;18.77;72.37;99799.59;4975985;28;1961;-68
2022/07/16 23:57:09;;;;;;;;;;;;;;;18.74;72.73;99802.53;4975608;28;883;-68
2022/07/16 23:59:37;;;;;;;;;;;;;;;18.68;72.94;99804.38;4975833;28;811;-68
